createdAt,value
2022-11-06T00:00:55.056Z,1016.48
2022-11-06T00:14:55.136Z,1016.54
2022-11-06T00:28:55.148Z,1016.42
2022-11-06T00:42:55.136Z,1016.49
2022-11-06T00:56:55.137Z,1016.4
2022-11-06T01:10:55.157Z,1016.55
2022-11-06T01:24:55.222Z,1016.6
2022-11-06T01:38:55.173Z,1016.78
2022-11-06T01:52:55.171Z,1016.73
2022-11-06T02:06:55.183Z,1016.55
2022-11-06T02:20:55.329Z,1016.36
2022-11-06T02:34:57.238Z,1016.53
2022-11-06T02:48:57.299Z,1016.65
2022-11-06T03:02:57.499Z,1016.7
2022-11-06T03:16:57.402Z,1016.73
2022-11-06T03:30:57.405Z,1016.81
2022-11-06T03:44:57.439Z,1016.89
2022-11-06T03:58:57.458Z,1016.96
2022-11-06T04:12:57.410Z,1017.3
2022-11-06T04:26:57.413Z,1017.39
2022-11-06T04:40:57.419Z,1017.53
2022-11-06T04:54:57.438Z,1017.52
2022-11-06T05:08:57.465Z,1017.49
2022-11-06T05:22:57.481Z,1017.63
2022-11-06T05:36:57.496Z,1017.6
2022-11-06T05:51:57.502Z,1017.56
2022-11-06T06:06:57.512Z,1017.86
2022-11-06T06:21:57.521Z,1018
2022-11-06T06:36:57.599Z,1018.08
2022-11-06T06:51:57.544Z,1018.24
2022-11-06T07:06:57.533Z,1018.36
2022-11-06T07:21:57.561Z,1018.46
2022-11-06T07:36:57.544Z,1018.51
2022-11-06T07:51:57.588Z,1018.54
2022-11-06T08:06:57.584Z,1018.44
2022-11-06T08:21:57.607Z,1018.39
2022-11-06T08:36:57.597Z,1018.34
2022-11-06T08:51:57.640Z,1018.33
2022-11-06T09:06:57.605Z,1018.29
2022-11-06T09:21:57.601Z,1018.33
2022-11-06T09:36:57.640Z,1018.32
2022-11-06T09:51:57.642Z,1018.15
2022-11-06T10:07:57.659Z,1018.14
2022-11-06T10:23:57.648Z,1017.95
2022-11-06T10:38:57.760Z,1017.86
2022-11-06T10:53:57.667Z,1017.82
2022-11-06T11:08:57.664Z,1017.42
2022-11-06T11:23:57.666Z,1017.48
2022-11-06T11:38:57.692Z,1017.29
2022-11-06T11:53:57.685Z,1017.21
2022-11-06T12:08:57.713Z,1017.15
2022-11-06T12:23:57.705Z,1017.04
2022-11-06T12:38:57.796Z,1016.91
2022-11-06T12:53:57.798Z,1016.83
2022-11-06T13:08:57.795Z,1016.77
2022-11-06T13:24:57.817Z,1016.7
2022-11-06T13:39:57.813Z,1016.69
2022-11-06T13:54:57.904Z,1016.71
2022-11-06T14:09:57.892Z,1016.7
2022-11-06T14:25:01.422Z,1016.55
2022-11-06T14:39:57.908Z,1016.61
2022-11-06T14:55:02.171Z,1016.77
2022-11-06T15:09:57.978Z,1016.85
2022-11-06T15:24:59.044Z,1016.87
2022-11-06T15:40:01.157Z,1016.85
2022-11-06T15:54:59.842Z,1016.85
2022-11-06T16:09:58.099Z,1016.83
2022-11-06T16:24:58.088Z,1016.83
2022-11-06T16:38:58.107Z,1016.98
2022-11-06T16:52:58.130Z,1017.04
2022-11-06T17:06:58.100Z,1017.08
2022-11-06T17:20:58.111Z,1017.13
2022-11-06T17:34:58.120Z,1017.16
2022-11-06T17:48:58.129Z,1017.12
2022-11-06T18:03:00.792Z,1017.24
2022-11-06T18:18:58.120Z,1017.09
2022-11-06T18:32:58.175Z,1017.18
2022-11-06T18:46:58.167Z,1017.13
2022-11-06T19:01:01.787Z,1017.16
2022-11-06T19:14:58.169Z,1017.22
2022-11-06T19:28:58.454Z,1017.33
2022-11-06T19:42:58.309Z,1017.24
2022-11-06T19:57:28.135Z,1017.11
2022-11-06T20:10:58.292Z,1017.33
2022-11-06T20:24:58.297Z,1017.29
2022-11-06T20:38:58.312Z,1017.3
2022-11-06T20:52:58.340Z,1017.54
2022-11-06T21:06:58.352Z,1017.58
2022-11-06T21:20:58.355Z,1017.6
2022-11-06T21:34:58.340Z,1017.62
2022-11-06T21:48:58.402Z,1017.47
2022-11-06T22:02:58.517Z,1017.47
2022-11-06T22:16:58.416Z,1017.67
2022-11-06T22:30:58.416Z,1017.58
2022-11-06T22:44:58.438Z,1017.72
2022-11-06T22:58:58.421Z,1017.79
2022-11-06T23:12:58.475Z,1017.8
2022-11-06T23:26:58.442Z,1017.97
2022-11-06T23:40:58.450Z,1018.03
2022-11-06T23:54:58.455Z,1018.1
